sensor_id;sensor_type;location;lat;lon;timestamp;temperature;humidity
53880;DHT22;39791;53.184;5.486;2022-10-12T00:00:57;10.60;99.90
53880;DHT22;39791;53.184;5.486;2022-10-12T00:03:23;11.20;99.90
53880;DHT22;39791;53.184;5.486;2022-10-12T00:06:09;11.20;99.90
53880;DHT22;39791;53.184;5.486;2022-10-12T00:08:36;10.60;99.90
53880;DHT22;39791;53.184;5.486;2022-10-12T00:11:03;11.20;99.90
53880;DHT22;39791;53.184;5.486;2022-10-12T00:13:28;11.00;99.90
53880;DHT22;39791;53.184;5.486;2022-10-12T00:15:54;10.70;99.90
53880;DHT22;39791;53.184;5.486;2022-10-12T00:18:20;10.80;99.90
53880;DHT22;39791;53.184;5.486;2022-10-12T00:20:46;10.80;99.90
53880;DHT22;39791;53.184;5.486;2022-10-12T00:23:11;10.90;99.90
53880;DHT22;39791;53.184;5.486;2022-10-12T00:25:39;10.80;99.90
53880;DHT22;39791;53.184;5.486;2022-10-12T00:28:06;11.00;99.90
53880;DHT22;39791;53.184;5.486;2022-10-12T00:30:32;11.30;99.90
53880;DHT22;39791;53.184;5.486;2022-10-12T00:32:58;11.20;99.90
53880;DHT22;39791;53.184;5.486;2022-10-12T00:35:24;10.80;99.90
53880;DHT22;39791;53.184;5.486;2022-10-12T00:37:53;10.80;99.90
53880;DHT22;39791;53.184;5.486;2022-10-12T00:40:19;10.80;99.90
53880;DHT22;39791;53.184;5.486;2022-10-12T00:42:45;11.00;99.90
53880;DHT22;39791;53.184;5.486;2022-10-12T00:45:14;11.20;99.90
53880;DHT22;39791;53.184;5.486;2022-10-12T00:47:46;11.10;99.90
53880;DHT22;39791;53.184;5.486;2022-10-12T00:50:28;11.30;99.90
53880;DHT22;39791;53.184;5.486;2022-10-12T00:53:03;11.20;99.90
53880;DHT22;39791;53.184;5.486;2022-10-12T00:55:36;11.60;99.90
53880;DHT22;39791;53.184;5.486;2022-10-12T00:58:04;11.00;99.90
53880;DHT22;39791;53.184;5.486;2022-10-12T01:00:31;11.00;99.90
53880;DHT22;39791;53.184;5.486;2022-10-12T01:02:57;12.30;99.90
53880;DHT22;39791;53.184;5.486;2022-10-12T01:05:22;11.40;99.90
53880;DHT22;39791;53.184;5.486;2022-10-12T01:07:48;11.40;99.90
53880;DHT22;39791;53.184;5.486;2022-10-12T01:10:14;10.80;99.90
53880;DHT22;39791;53.184;5.486;2022-10-12T01:12:42;11.20;99.90
53880;DHT22;39791;53.184;5.486;2022-10-12T01:15:09;11.20;99.90
53880;DHT22;39791;53.184;5.486;2022-10-12T01:18:21;10.70;99.90
53880;DHT22;39791;53.184;5.486;2022-10-12T01:21:04;10.90;99.90
53880;DHT22;39791;53.184;5.486;2022-10-12T01:26:42;11.10;99.90
53880;DHT22;39791;53.184;5.486;2022-10-12T01:32:21;11.40;99.90
53880;DHT22;39791;53.184;5.486;2022-10-12T01:35:19;11.40;99.90
53880;DHT22;39791;53.184;5.486;2022-10-12T01:38:11;11.00;99.90
53880;DHT22;39791;53.184;5.486;2022-10-12T01:40:45;11.10;99.90
53880;DHT22;39791;53.184;5.486;2022-10-12T01:43:16;11.50;99.90
53880;DHT22;39791;53.184;5.486;2022-10-12T01:45:42;11.70;99.90
53880;DHT22;39791;53.184;5.486;2022-10-12T01:48:08;11.50;99.90
53880;DHT22;39791;53.184;5.486;2022-10-12T01:50:51;11.50;99.90
53880;DHT22;39791;53.184;5.486;2022-10-12T01:53:53;11.40;99.90
53880;DHT22;39791;53.184;5.486;2022-10-12T02:07:43;11.30;99.90
53880;DHT22;39791;53.184;5.486;2022-10-12T02:10:17;11.60;99.90
53880;DHT22;39791;53.184;5.486;2022-10-12T02:12:45;11.40;99.90
53880;DHT22;39791;53.184;5.486;2022-10-12T02:15:12;11.40;99.90
53880;DHT22;39791;53.184;5.486;2022-10-12T02:17:40;11.40;99.90
53880;DHT22;39791;53.184;5.486;2022-10-12T02:20:10;11.20;99.90
53880;DHT22;39791;53.184;5.486;2022-10-12T02:22:39;11.80;99.90
53880;DHT22;39791;53.184;5.486;2022-10-12T02:25:09;11.20;99.90
53880;DHT22;39791;53.184;5.486;2022-10-12T02:27:38;11.20;99.90
53880;DHT22;39791;53.184;5.486;2022-10-12T02:30:06;11.70;99.90
53880;DHT22;39791;53.184;5.486;2022-10-12T02:35:17;11.90;99.90
53880;DHT22;39791;53.184;5.486;2022-10-12T02:40:40;11.90;99.90
53880;DHT22;39791;53.184;5.486;2022-10-12T02:43:16;12.00;99.90
53880;DHT22;39791;53.184;5.486;2022-10-12T02:45:45;11.30;99.90
53880;DHT22;39791;53.184;5.486;2022-10-12T02:48:18;11.60;99.90
53880;DHT22;39791;53.184;5.486;2022-10-12T02:50:47;11.40;99.90
53880;DHT22;39791;53.184;5.486;2022-10-12T02:53:13;11.30;99.90
53880;DHT22;39791;53.184;5.486;2022-10-12T02:55:51;11.20;99.90
53880;DHT22;39791;53.184;5.486;2022-10-12T02:58:17;11.80;99.90
53880;DHT22;39791;53.184;5.486;2022-10-12T03:00:43;11.70;99.90
53880;DHT22;39791;53.184;5.486;2022-10-12T03:03:09;11.30;99.90
53880;DHT22;39791;53.184;5.486;2022-10-12T03:05:35;11.40;99.90
53880;DHT22;39791;53.184;5.486;2022-10-12T03:08:00;11.50;99.90
53880;DHT22;39791;53.184;5.486;2022-10-12T03:10:26;11.60;99.90
53880;DHT22;39791;53.184;5.486;2022-10-12T03:12:53;11.20;99.90
53880;DHT22;39791;53.184;5.486;2022-10-12T03:15:18;11.20;99.90
53880;DHT22;39791;53.184;5.486;2022-10-12T03:17:44;11.80;99.90
53880;DHT22;39791;53.184;5.486;2022-10-12T03:20:10;11.10;99.90
53880;DHT22;39791;53.184;5.486;2022-10-12T03:22:36;11.50;99.90
53880;DHT22;39791;53.184;5.486;2022-10-12T03:25:01;11.40;99.90
53880;DHT22;39791;53.184;5.486;2022-10-12T03:27:27;11.20;99.90
53880;DHT22;39791;53.184;5.486;2022-10-12T03:29:53;11.40;99.90
53880;DHT22;39791;53.184;5.486;2022-10-12T03:32:18;11.50;99.90
53880;DHT22;39791;53.184;5.486;2022-10-12T03:34:44;11.80;99.90
53880;DHT22;39791;53.184;5.486;2022-10-12T03:37:09;11.70;99.90
53880;DHT22;39791;53.184;5.486;2022-10-12T03:39:35;11.70;99.90
53880;DHT22;39791;53.184;5.486;2022-10-12T03:42:01;11.10;99.90
53880;DHT22;39791;53.184;5.486;2022-10-12T03:44:26;11.70;99.90
53880;DHT22;39791;53.184;5.486;2022-10-12T03:46:52;11.40;99.90
53880;DHT22;39791;53.184;5.486;2022-10-12T03:49:17;11.20;99.90
53880;DHT22;39791;53.184;5.486;2022-10-12T03:51:43;11.60;99.90
53880;DHT22;39791;53.184;5.486;2022-10-12T03:54:09;11.10;99.90
53880;DHT22;39791;53.184;5.486;2022-10-12T03:56:34;11.20;99.90
53880;DHT22;39791;53.184;5.486;2022-10-12T03:59:00;10.80;99.90
53880;DHT22;39791;53.184;5.486;2022-10-12T04:01:26;11.60;99.90
53880;DHT22;39791;53.184;5.486;2022-10-12T04:03:51;10.90;99.90
53880;DHT22;39791;53.184;5.486;2022-10-12T04:06:17;10.80;99.90
53880;DHT22;39791;53.184;5.486;2022-10-12T04:08:42;11.30;99.90
53880;DHT22;39791;53.184;5.486;2022-10-12T04:11:08;11.50;99.90
53880;DHT22;39791;53.184;5.486;2022-10-12T04:13:34;11.40;99.90
53880;DHT22;39791;53.184;5.486;2022-10-12T04:16:04;11.50;99.90
53880;DHT22;39791;53.184;5.486;2022-10-12T04:18:30;10.60;99.90
53880;DHT22;39791;53.184;5.486;2022-10-12T04:20:56;11.10;99.90
53880;DHT22;39791;53.184;5.486;2022-10-12T04:23:22;11.20;99.90
53880;DHT22;39791;53.184;5.486;2022-10-12T04:25:47;11.40;99.90
53880;DHT22;39791;53.184;5.486;2022-10-12T04:28:13;11.00;99.90
53880;DHT22;39791;53.184;5.486;2022-10-12T04:30:38;11.00;99.90
53880;DHT22;39791;53.184;5.486;2022-10-12T04:33:04;11.30;99.90
53880;DHT22;39791;53.184;5.486;2022-10-12T04:35:30;11.40;99.90
53880;DHT22;39791;53.184;5.486;2022-10-12T04:37:56;11.40;99.90
53880;DHT22;39791;53.184;5.486;2022-10-12T04:40:21;11.20;99.90
53880;DHT22;39791;53.184;5.486;2022-10-12T04:42:47;10.80;99.90
53880;DHT22;39791;53.184;5.486;2022-10-12T04:45:13;11.20;99.90
53880;DHT22;39791;53.184;5.486;2022-10-12T04:47:38;11.20;99.90
53880;DHT22;39791;53.184;5.486;2022-10-12T04:50:04;10.50;99.90
53880;DHT22;39791;53.184;5.486;2022-10-12T04:52:30;11.20;99.90
53880;DHT22;39791;53.184;5.486;2022-10-12T04:54:56;11.10;99.90
53880;DHT22;39791;53.184;5.486;2022-10-12T04:57:22;10.50;99.90
53880;DHT22;39791;53.184;5.486;2022-10-12T04:59:48;11.20;99.90
53880;DHT22;39791;53.184;5.486;2022-10-12T05:02:13;13.30;99.90
53880;DHT22;39791;53.184;5.486;2022-10-12T05:04:39;10.60;99.90
53880;DHT22;39791;53.184;5.486;2022-10-12T05:07:04;10.80;99.90
53880;DHT22;39791;53.184;5.486;2022-10-12T05:09:30;10.50;99.90
53880;DHT22;39791;53.184;5.486;2022-10-12T05:11:55;10.60;99.90
53880;DHT22;39791;53.184;5.486;2022-10-12T05:14:21;10.80;99.90
53880;DHT22;39791;53.184;5.486;2022-10-12T05:16:47;10.40;99.90
53880;DHT22;39791;53.184;5.486;2022-10-12T05:19:12;11.10;99.90
53880;DHT22;39791;53.184;5.486;2022-10-12T05:21:38;11.10;99.90
53880;DHT22;39791;53.184;5.486;2022-10-12T05:24:05;10.90;99.90
53880;DHT22;39791;53.184;5.486;2022-10-12T05:26:31;11.10;99.90
53880;DHT22;39791;53.184;5.486;2022-10-12T05:28:57;11.90;99.90
53880;DHT22;39791;53.184;5.486;2022-10-12T05:31:22;10.40;99.90
53880;DHT22;39791;53.184;5.486;2022-10-12T05:33:48;10.30;99.90
53880;DHT22;39791;53.184;5.486;2022-10-12T05:36:14;10.80;99.90
53880;DHT22;39791;53.184;5.486;2022-10-12T05:38:39;11.00;99.90
53880;DHT22;39791;53.184;5.486;2022-10-12T05:41:05;10.60;99.90
53880;DHT22;39791;53.184;5.486;2022-10-12T05:43:31;11.00;99.90
53880;DHT22;39791;53.184;5.486;2022-10-12T05:45:56;10.30;99.90
53880;DHT22;39791;53.184;5.486;2022-10-12T05:48:22;10.50;99.90
53880;DHT22;39791;53.184;5.486;2022-10-12T05:50:51;10.90;99.90
53880;DHT22;39791;53.184;5.486;2022-10-12T05:53:17;10.50;99.90
53880;DHT22;39791;53.184;5.486;2022-10-12T05:56:00;11.20;99.90
53880;DHT22;39791;53.184;5.486;2022-10-12T05:58:27;10.70;99.90
53880;DHT22;39791;53.184;5.486;2022-10-12T06:00:53;10.10;99.90
53880;DHT22;39791;53.184;5.486;2022-10-12T06:03:20;9.90;99.90
53880;DHT22;39791;53.184;5.486;2022-10-12T06:05:46;10.60;99.90
53880;DHT22;39791;53.184;5.486;2022-10-12T06:08:12;10.70;99.90
53880;DHT22;39791;53.184;5.486;2022-10-12T06:10:44;10.00;99.90
53880;DHT22;39791;53.184;5.486;2022-10-12T06:13:10;10.80;99.90
53880;DHT22;39791;53.184;5.486;2022-10-12T06:15:36;10.20;99.90
53880;DHT22;39791;53.184;5.486;2022-10-12T06:18:02;10.10;99.90
53880;DHT22;39791;53.184;5.486;2022-10-12T06:20:27;10.70;99.90
53880;DHT22;39791;53.184;5.486;2022-10-12T06:22:53;10.30;99.90
53880;DHT22;39791;53.184;5.486;2022-10-12T06:25:18;10.40;99.90
53880;DHT22;39791;53.184;5.486;2022-10-12T06:27:44;10.10;99.90
53880;DHT22;39791;53.184;5.486;2022-10-12T06:30:11;10.20;99.90
53880;DHT22;39791;53.184;5.486;2022-10-12T06:32:36;10.80;99.90
53880;DHT22;39791;53.184;5.486;2022-10-12T06:35:02;10.20;99.90
53880;DHT22;39791;53.184;5.486;2022-10-12T06:37:28;10.80;99.90
53880;DHT22;39791;53.184;5.486;2022-10-12T06:39:54;10.50;99.90
53880;DHT22;39791;53.184;5.486;2022-10-12T06:42:20;10.80;99.90
53880;DHT22;39791;53.184;5.486;2022-10-12T06:44:46;11.10;99.90
53880;DHT22;39791;53.184;5.486;2022-10-12T06:47:11;11.20;99.90
53880;DHT22;39791;53.184;5.486;2022-10-12T06:49:37;11.90;99.90
53880;DHT22;39791;53.184;5.486;2022-10-12T06:52:03;11.00;99.90
53880;DHT22;39791;53.184;5.486;2022-10-12T06:54:28;11.10;99.90
53880;DHT22;39791;53.184;5.486;2022-10-12T06:56:54;11.50;99.90
53880;DHT22;39791;53.184;5.486;2022-10-12T06:59:19;10.90;99.90
53880;DHT22;39791;53.184;5.486;2022-10-12T07:01:48;11.20;99.90
53880;DHT22;39791;53.184;5.486;2022-10-12T07:04:14;11.30;99.90
53880;DHT22;39791;53.184;5.486;2022-10-12T07:06:40;11.40;99.90
53880;DHT22;39791;53.184;5.486;2022-10-12T07:09:06;12.10;99.90
53880;DHT22;39791;53.184;5.486;2022-10-12T07:11:32;11.70;99.90
53880;DHT22;39791;53.184;5.486;2022-10-12T07:13:57;11.90;99.90
53880;DHT22;39791;53.184;5.486;2022-10-12T07:16:23;12.00;99.90
53880;DHT22;39791;53.184;5.486;2022-10-12T07:18:48;11.60;99.90
53880;DHT22;39791;53.184;5.486;2022-10-12T07:21:15;11.90;99.90
53880;DHT22;39791;53.184;5.486;2022-10-12T07:23:40;12.10;99.90
53880;DHT22;39791;53.184;5.486;2022-10-12T07:26:06;12.50;99.90
53880;DHT22;39791;53.184;5.486;2022-10-12T07:28:33;12.40;99.90
53880;DHT22;39791;53.184;5.486;2022-10-12T07:31:04;12.50;99.90
53880;DHT22;39791;53.184;5.486;2022-10-12T07:33:34;11.90;99.90
53880;DHT22;39791;53.184;5.486;2022-10-12T07:36:01;12.30;99.90
53880;DHT22;39791;53.184;5.486;2022-10-12T07:38:27;12.20;99.90
53880;DHT22;39791;53.184;5.486;2022-10-12T07:40:53;11.80;99.90
53880;DHT22;39791;53.184;5.486;2022-10-12T07:43:19;12.60;99.90
53880;DHT22;39791;53.184;5.486;2022-10-12T07:45:44;12.90;99.90
53880;DHT22;39791;53.184;5.486;2022-10-12T07:48:10;12.50;99.90
53880;DHT22;39791;53.184;5.486;2022-10-12T07:50:36;12.30;99.90
53880;DHT22;39791;53.184;5.486;2022-10-12T07:53:01;13.10;99.90
53880;DHT22;39791;53.184;5.486;2022-10-12T07:55:29;12.90;99.90
53880;DHT22;39791;53.184;5.486;2022-10-12T07:57:57;13.50;99.90
53880;DHT22;39791;53.184;5.486;2022-10-12T08:00:23;13.60;99.90
53880;DHT22;39791;53.184;5.486;2022-10-12T08:02:48;13.10;99.90
53880;DHT22;39791;53.184;5.486;2022-10-12T08:05:14;13.30;99.90
53880;DHT22;39791;53.184;5.486;2022-10-12T08:07:39;13.90;99.90
53880;DHT22;39791;53.184;5.486;2022-10-12T08:10:05;14.20;99.90
53880;DHT22;39791;53.184;5.486;2022-10-12T08:12:31;14.20;99.90
53880;DHT22;39791;53.184;5.486;2022-10-12T08:14:56;14.90;99.90
53880;DHT22;39791;53.184;5.486;2022-10-12T08:17:22;15.10;99.90
53880;DHT22;39791;53.184;5.486;2022-10-12T08:19:48;15.10;99.90
53880;DHT22;39791;53.184;5.486;2022-10-12T08:22:14;15.30;99.90
53880;DHT22;39791;53.184;5.486;2022-10-12T08:24:39;15.50;99.90
53880;DHT22;39791;53.184;5.486;2022-10-12T08:27:05;15.50;99.90
53880;DHT22;39791;53.184;5.486;2022-10-12T08:29:31;15.60;99.90
53880;DHT22;39791;53.184;5.486;2022-10-12T08:31:56;16.00;99.90
53880;DHT22;39791;53.184;5.486;2022-10-12T08:34:22;16.30;99.90
53880;DHT22;39791;53.184;5.486;2022-10-12T08:36:49;16.60;99.90
53880;DHT22;39791;53.184;5.486;2022-10-12T08:39:16;17.20;99.90
53880;DHT22;39791;53.184;5.486;2022-10-12T08:41:45;17.10;99.90
53880;DHT22;39791;53.184;5.486;2022-10-12T08:44:27;17.60;99.90
53880;DHT22;39791;53.184;5.486;2022-10-12T08:46:58;17.50;99.90
53880;DHT22;39791;53.184;5.486;2022-10-12T08:49:26;17.60;99.90
53880;DHT22;39791;53.184;5.486;2022-10-12T08:51:55;17.70;99.90
53880;DHT22;39791;53.184;5.486;2022-10-12T08:54:23;17.70;99.90
53880;DHT22;39791;53.184;5.486;2022-10-12T08:56:53;17.80;99.90
53880;DHT22;39791;53.184;5.486;2022-10-12T08:59:20;17.80;99.90
53880;DHT22;39791;53.184;5.486;2022-10-12T09:02:01;17.90;99.90
53880;DHT22;39791;53.184;5.486;2022-10-12T09:07:19;17.80;99.90
53880;DHT22;39791;53.184;5.486;2022-10-12T09:15:31;17.80;99.90
53880;DHT22;39791;53.184;5.486;2022-10-12T09:17:59;17.80;99.90
53880;DHT22;39791;53.184;5.486;2022-10-12T09:22:57;17.90;99.90
53880;DHT22;39791;53.184;5.486;2022-10-12T09:25:26;18.00;99.90
53880;DHT22;39791;53.184;5.486;2022-10-12T09:27:53;18.00;99.90
53880;DHT22;39791;53.184;5.486;2022-10-12T09:30:21;18.10;99.90
53880;DHT22;39791;53.184;5.486;2022-10-12T09:35:13;18.10;99.90
53880;DHT22;39791;53.184;5.486;2022-10-12T09:37:39;18.30;99.90
53880;DHT22;39791;53.184;5.486;2022-10-12T09:40:05;18.30;99.90
53880;DHT22;39791;53.184;5.486;2022-10-12T09:42:34;18.40;99.90
53880;DHT22;39791;53.184;5.486;2022-10-12T09:45:20;18.30;99.90
53880;DHT22;39791;53.184;5.486;2022-10-12T09:48:11;18.30;99.90
53880;DHT22;39791;53.184;5.486;2022-10-12T09:50:53;18.40;99.90
53880;DHT22;39791;53.184;5.486;2022-10-12T09:53:40;18.50;99.90
53880;DHT22;39791;53.184;5.486;2022-10-12T09:56:12;18.40;99.90
53880;DHT22;39791;53.184;5.486;2022-10-12T09:58:52;18.80;99.90
53880;DHT22;39791;53.184;5.486;2022-10-12T10:01:24;18.60;99.90
53880;DHT22;39791;53.184;5.486;2022-10-12T10:04:07;18.70;99.90
53880;DHT22;39791;53.184;5.486;2022-10-12T10:06:35;18.70;99.90
53880;DHT22;39791;53.184;5.486;2022-10-12T10:09:01;18.50;99.90
53880;DHT22;39791;53.184;5.486;2022-10-12T10:11:28;18.70;99.90
53880;DHT22;39791;53.184;5.486;2022-10-12T10:13:59;18.80;99.90
53880;DHT22;39791;53.184;5.486;2022-10-12T10:16:26;19.10;99.90
53880;DHT22;39791;53.184;5.486;2022-10-12T10:21:30;18.80;99.90
53880;DHT22;39791;53.184;5.486;2022-10-12T10:24:02;18.80;99.90
53880;DHT22;39791;53.184;5.486;2022-10-12T10:29:23;18.80;99.90
53880;DHT22;39791;53.184;5.486;2022-10-12T10:32:06;18.90;99.90
53880;DHT22;39791;53.184;5.486;2022-10-12T10:37:55;19.00;99.90
53880;DHT22;39791;53.184;5.486;2022-10-12T10:40:39;18.90;99.90
53880;DHT22;39791;53.184;5.486;2022-10-12T10:43:29;18.90;99.90
53880;DHT22;39791;53.184;5.486;2022-10-12T10:46:15;18.90;99.90
53880;DHT22;39791;53.184;5.486;2022-10-12T10:48:57;19.00;99.90
53880;DHT22;39791;53.184;5.486;2022-10-12T10:51:49;19.10;99.90
53880;DHT22;39791;53.184;5.486;2022-10-12T10:54:25;19.10;99.90
53880;DHT22;39791;53.184;5.486;2022-10-12T10:57:03;18.90;99.90
53880;DHT22;39791;53.184;5.486;2022-10-12T10:59:51;19.00;99.90
53880;DHT22;39791;53.184;5.486;2022-10-12T11:02:27;19.00;99.90
53880;DHT22;39791;53.184;5.486;2022-10-12T11:05:13;19.40;99.90
53880;DHT22;39791;53.184;5.486;2022-10-12T11:07:50;19.00;99.90
53880;DHT22;39791;53.184;5.486;2022-10-12T11:10:24;18.80;2.20
53880;DHT22;39791;53.184;5.486;2022-10-12T11:13:06;18.70;1.00
53880;DHT22;39791;53.184;5.486;2022-10-12T11:15:43;18.60;1.00
53880;DHT22;39791;53.184;5.486;2022-10-12T11:18:12;18.80;1.00
53880;DHT22;39791;53.184;5.486;2022-10-12T11:20:53;18.80;1.00
53880;DHT22;39791;53.184;5.486;2022-10-12T11:23:33;18.80;99.90
53880;DHT22;39791;53.184;5.486;2022-10-12T11:26:14;18.90;99.90
53880;DHT22;39791;53.184;5.486;2022-10-12T11:28:44;18.80;99.90
53880;DHT22;39791;53.184;5.486;2022-10-12T11:31:22;18.70;1.00
53880;DHT22;39791;53.184;5.486;2022-10-12T11:33:48;18.60;1.00
53880;DHT22;39791;53.184;5.486;2022-10-12T11:36:19;18.60;1.00
53880;DHT22;39791;53.184;5.486;2022-10-12T11:38:49;18.70;1.00
53880;DHT22;39791;53.184;5.486;2022-10-12T11:44:20;18.60;99.90
53880;DHT22;39791;53.184;5.486;2022-10-12T11:47:00;18.50;1.00
53880;DHT22;39791;53.184;5.486;2022-10-12T11:49:30;18.50;1.00
53880;DHT22;39791;53.184;5.486;2022-10-12T11:52:00;18.50;1.00
53880;DHT22;39791;53.184;5.486;2022-10-12T11:57:10;18.50;99.90
53880;DHT22;39791;53.184;5.486;2022-10-12T11:59:39;18.40;1.00
53880;DHT22;39791;53.184;5.486;2022-10-12T12:02:28;18.30;99.90
53880;DHT22;39791;53.184;5.486;2022-10-12T12:04:56;18.30;99.90
53880;DHT22;39791;53.184;5.486;2022-10-12T12:19:12;18.40;1.00
53880;DHT22;39791;53.184;5.486;2022-10-12T12:24:36;18.30;94.70
53880;DHT22;39791;53.184;5.486;2022-10-12T12:27:02;18.20;99.90
53880;DHT22;39791;53.184;5.486;2022-10-12T12:29:28;18.20;1.00
53880;DHT22;39791;53.184;5.486;2022-10-12T12:31:57;18.10;1.00
53880;DHT22;39791;53.184;5.486;2022-10-12T12:34:27;18.10;1.00
53880;DHT22;39791;53.184;5.486;2022-10-12T12:36:53;18.10;99.90
53880;DHT22;39791;53.184;5.486;2022-10-12T12:41:53;18.20;99.90
53880;DHT22;39791;53.184;5.486;2022-10-12T12:52:31;18.40;99.90
53880;DHT22;39791;53.184;5.486;2022-10-12T13:00:33;18.30;99.90
53880;DHT22;39791;53.184;5.486;2022-10-12T13:06:35;18.20;99.90
53880;DHT22;39791;53.184;5.486;2022-10-12T13:11:51;18.10;1.00
53880;DHT22;39791;53.184;5.486;2022-10-12T13:19:44;17.60;99.90
53880;DHT22;39791;53.184;5.486;2022-10-12T13:22:31;17.80;99.90
53880;DHT22;39791;53.184;5.486;2022-10-12T13:25:05;17.60;99.90
53880;DHT22;39791;53.184;5.486;2022-10-12T13:27:44;17.50;99.30
53880;DHT22;39791;53.184;5.486;2022-10-12T13:33:12;17.50;97.30
53880;DHT22;39791;53.184;5.486;2022-10-12T13:35:48;17.50;99.90
53880;DHT22;39791;53.184;5.486;2022-10-12T13:38:24;17.50;1.00
53880;DHT22;39791;53.184;5.486;2022-10-12T13:41:05;17.50;99.90
53880;DHT22;39791;53.184;5.486;2022-10-12T13:46:33;17.30;99.90
53880;DHT22;39791;53.184;5.486;2022-10-12T13:48:59;17.30;99.90
53880;DHT22;39791;53.184;5.486;2022-10-12T13:51:27;17.30;99.90
53880;DHT22;39791;53.184;5.486;2022-10-12T13:53:53;17.20;1.00
53880;DHT22;39791;53.184;5.486;2022-10-12T13:56:22;17.30;1.00
53880;DHT22;39791;53.184;5.486;2022-10-12T13:58:52;17.20;1.00
53880;DHT22;39791;53.184;5.486;2022-10-12T14:01:19;17.30;1.00
53880;DHT22;39791;53.184;5.486;2022-10-12T14:03:45;17.30;24.50
53880;DHT22;39791;53.184;5.486;2022-10-12T14:06:29;17.30;26.10
53880;DHT22;39791;53.184;5.486;2022-10-12T14:08:57;17.50;99.90
53880;DHT22;39791;53.184;5.486;2022-10-12T14:11:24;17.60;97.80
53880;DHT22;39791;53.184;5.486;2022-10-12T14:13:51;17.60;59.70
53880;DHT22;39791;53.184;5.486;2022-10-12T14:16:18;17.70;84.90
53880;DHT22;39791;53.184;5.486;2022-10-12T14:18:45;17.70;1.00
53880;DHT22;39791;53.184;5.486;2022-10-12T14:21:21;17.70;1.00
53880;DHT22;39791;53.184;5.486;2022-10-12T14:23:53;17.70;99.90
53880;DHT22;39791;53.184;5.486;2022-10-12T14:28:55;17.40;99.90
53880;DHT22;39791;53.184;5.486;2022-10-12T14:31:49;17.50;1.00
53880;DHT22;39791;53.184;5.486;2022-10-12T14:37:04;17.80;99.90
53880;DHT22;39791;53.184;5.486;2022-10-12T14:39:31;17.30;99.90
53880;DHT22;39791;53.184;5.486;2022-10-12T14:42:03;17.30;1.00
53880;DHT22;39791;53.184;5.486;2022-10-12T14:44:42;17.30;1.00
53880;DHT22;39791;53.184;5.486;2022-10-12T14:47:21;17.30;1.00
53880;DHT22;39791;53.184;5.486;2022-10-12T14:49:49;17.20;1.00
53880;DHT22;39791;53.184;5.486;2022-10-12T14:52:22;17.10;1.00
53880;DHT22;39791;53.184;5.486;2022-10-12T14:54:52;17.00;1.00
53880;DHT22;39791;53.184;5.486;2022-10-12T14:57:19;16.90;1.00
53880;DHT22;39791;53.184;5.486;2022-10-12T14:59:46;16.90;38.20
53880;DHT22;39791;53.184;5.486;2022-10-12T15:02:21;16.80;99.90
53880;DHT22;39791;53.184;5.486;2022-10-12T15:04:47;16.70;99.90
53880;DHT22;39791;53.184;5.486;2022-10-12T15:07:20;16.50;1.00
53880;DHT22;39791;53.184;5.486;2022-10-12T15:09:46;16.60;1.00
53880;DHT22;39791;53.184;5.486;2022-10-12T15:12:14;17.00;1.00
53880;DHT22;39791;53.184;5.486;2022-10-12T15:14:41;16.50;36.70
53880;DHT22;39791;53.184;5.486;2022-10-12T15:17:11;16.50;99.90
53880;DHT22;39791;53.184;5.486;2022-10-12T15:19:36;16.50;1.00
53880;DHT22;39791;53.184;5.486;2022-10-12T15:22:02;16.50;98.10
53880;DHT22;39791;53.184;5.486;2022-10-12T15:24:28;16.40;99.90
53880;DHT22;39791;53.184;5.486;2022-10-12T15:26:53;16.40;1.00
53880;DHT22;39791;53.184;5.486;2022-10-12T15:29:19;16.90;12.50
53880;DHT22;39791;53.184;5.486;2022-10-12T15:31:44;16.40;99.90
53880;DHT22;39791;53.184;5.486;2022-10-12T15:34:12;16.40;1.00
53880;DHT22;39791;53.184;5.486;2022-10-12T15:36:38;16.40;99.90
53880;DHT22;39791;53.184;5.486;2022-10-12T15:39:04;16.40;99.90
53880;DHT22;39791;53.184;5.486;2022-10-12T15:41:29;16.40;51.70
53880;DHT22;39791;53.184;5.486;2022-10-12T15:43:55;16.30;99.90
53880;DHT22;39791;53.184;5.486;2022-10-12T15:46:21;16.30;99.90
53880;DHT22;39791;53.184;5.486;2022-10-12T15:48:46;16.20;99.90
53880;DHT22;39791;53.184;5.486;2022-10-12T15:51:17;16.70;1.00
53880;DHT22;39791;53.184;5.486;2022-10-12T15:53:43;16.10;1.00
53880;DHT22;39791;53.184;5.486;2022-10-12T15:56:13;16.10;99.90
53880;DHT22;39791;53.184;5.486;2022-10-12T15:58:39;15.90;99.90
53880;DHT22;39791;53.184;5.486;2022-10-12T16:01:05;15.90;99.90
53880;DHT22;39791;53.184;5.486;2022-10-12T16:03:31;15.80;1.00
53880;DHT22;39791;53.184;5.486;2022-10-12T16:05:57;15.80;99.90
53880;DHT22;39791;53.184;5.486;2022-10-12T16:08:23;15.80;99.90
53880;DHT22;39791;53.184;5.486;2022-10-12T16:10:49;15.70;1.00
53880;DHT22;39791;53.184;5.486;2022-10-12T16:13:15;15.70;60.70
53880;DHT22;39791;53.184;5.486;2022-10-12T16:15:42;15.70;99.90
53880;DHT22;39791;53.184;5.486;2022-10-12T16:18:08;15.60;99.90
53880;DHT22;39791;53.184;5.486;2022-10-12T16:20:35;15.60;99.90
53880;DHT22;39791;53.184;5.486;2022-10-12T16:23:05;15.60;99.90
53880;DHT22;39791;53.184;5.486;2022-10-12T16:25:30;15.70;1.00
53880;DHT22;39791;53.184;5.486;2022-10-12T16:27:56;15.50;1.00
53880;DHT22;39791;53.184;5.486;2022-10-12T16:30:24;15.50;1.00
53880;DHT22;39791;53.184;5.486;2022-10-12T16:32:51;15.50;1.00
53880;DHT22;39791;53.184;5.486;2022-10-12T16:35:17;15.50;1.00
53880;DHT22;39791;53.184;5.486;2022-10-12T16:37:42;15.40;1.00
53880;DHT22;39791;53.184;5.486;2022-10-12T16:40:09;15.40;11.50
53880;DHT22;39791;53.184;5.486;2022-10-12T16:42:35;15.40;31.20
53880;DHT22;39791;53.184;5.486;2022-10-12T16:45:01;15.40;61.00
53880;DHT22;39791;53.184;5.486;2022-10-12T16:47:27;15.40;90.50
53880;DHT22;39791;53.184;5.486;2022-10-12T16:49:53;15.30;99.90
53880;DHT22;39791;53.184;5.486;2022-10-12T16:52:20;15.20;99.90
53880;DHT22;39791;53.184;5.486;2022-10-12T16:54:49;15.20;99.90
53880;DHT22;39791;53.184;5.486;2022-10-12T16:57:15;15.20;99.90
53880;DHT22;39791;53.184;5.486;2022-10-12T16:59:41;15.40;99.90
53880;DHT22;39791;53.184;5.486;2022-10-12T17:02:09;15.10;99.90
53880;DHT22;39791;53.184;5.486;2022-10-12T17:04:34;15.20;99.90
53880;DHT22;39791;53.184;5.486;2022-10-12T17:07:00;15.00;99.90
53880;DHT22;39791;53.184;5.486;2022-10-12T17:09:25;15.00;99.90
53880;DHT22;39791;53.184;5.486;2022-10-12T17:11:52;15.00;99.90
53880;DHT22;39791;53.184;5.486;2022-10-12T17:14:17;14.90;99.90
53880;DHT22;39791;53.184;5.486;2022-10-12T17:16:43;14.90;99.90
53880;DHT22;39791;53.184;5.486;2022-10-12T17:19:33;15.00;99.90
53880;DHT22;39791;53.184;5.486;2022-10-12T17:21:59;15.00;99.90
53880;DHT22;39791;53.184;5.486;2022-10-12T17:24:27;15.00;99.90
53880;DHT22;39791;53.184;5.486;2022-10-12T17:26:54;15.00;99.90
53880;DHT22;39791;53.184;5.486;2022-10-12T17:29:21;15.10;99.90